Airfield :
LOGIN :

Register | Disclaimer

   EN    FR    IT 

 










Legend :    VFR   Marginal VFR   IFR   Intensive IFR   Very Intensive IFR
Visi :
Ceiling :
>= 8 km
>= 3000ft
5 to 8 km
1000 to 3000 ft
1500m to 5 km
500 to 1000 ft
800 to 1500m
200 to 500 ft
< 800m
< 200 ft
Symbols :   Thunderstorms  Fog  Heavy snow  Heavy precipitations  Wind > 20 kt
SIGMETs :     Misc.  Thunderstorms  Icing  Turbulence  Mountain Waves  Volcanic Ashes






- Airport Elevation : 376 ft


LHKE - Kecskemét

CURRENT METAR :
  • 181715Z 24005KT 210V280 CAVOK 31/13 Q1016 NOSIG RMK BLU

EXPIRED METARs :
  • 181645Z 23004KT 200V290 CAVOK 31/13 Q1016 NOSIG RMK BLU
  • 181615Z 23005KT 170V300 CAVOK 32/13 Q1016 NOSIG RMK BLU
  • 181545Z 25005KT 200V290 CAVOK 32/12 Q1016 NOSIG RMK BLU
  • 181515Z 24007KT 190V280 CAVOK 32/13 Q1017 NOSIG RMK BLU
  • 181445Z 21008KT 190V260 CAVOK 32/13 Q1017 NOSIG RMK BLU
  • 181415Z 18006KT 140V220 CAVOK 32/14 Q1017 NOSIG RMK BLU
  • 181345Z VRB05KT CAVOK 32/16 Q1017 NOSIG RMK BLU
  • 181315Z VRB05KT CAVOK 31/15 Q1017 NOSIG RMK BLU

TAF TAF LHKE
Valid from the 18 at 18:00 until the 19 at 03:00 UTC


181715Z 1818/1903 VRB03KT CAVOK
BECMG 1818/1819 14005KT
BECMG 1901/1903 18005KT



MET'MAP, your aeronautical weather chart ! - Copyright ORBIFLY December 2007 - Disclaimer

ORBIFLY MET'MAP TEAM :

Programming & Development : Alexandra Zaïnal
Original concept : Baudouin d'Aumeries
Technical & hardware support : Manuel Goepfert
Assistance : Marc-Olivier Méhu




SOURCES & CREDITS :

   NOAA